createdAt,value
2022-12-03T00:01:20.322Z,3.90
2022-12-03T00:03:56.445Z,3.80
2022-12-03T00:06:34.512Z,3.80
2022-12-03T00:09:16.300Z,3.80
2022-12-03T00:11:51.049Z,4.00
2022-12-03T00:14:25.265Z,3.70
2022-12-03T00:16:54.318Z,3.80
2022-12-03T00:19:28.684Z,3.90
2022-12-03T00:22:12.812Z,3.90
2022-12-03T00:24:48.160Z,3.90
2022-12-03T00:27:24.920Z,3.80
2022-12-03T00:29:55.767Z,3.70
2022-12-03T00:32:27.565Z,3.70
2022-12-03T00:34:59.512Z,3.70
2022-12-03T00:37:38.400Z,3.60
2022-12-03T00:40:12.252Z,3.60
2022-12-03T00:42:43.572Z,3.60
2022-12-03T00:45:17.858Z,3.60
2022-12-03T00:47:51.317Z,3.70
2022-12-03T00:50:22.450Z,3.60
2022-12-03T00:53:09.493Z,3.60
2022-12-03T00:55:54.241Z,3.60
2022-12-03T00:58:30.642Z,3.70
2022-12-03T01:01:03.686Z,3.60
2022-12-03T01:03:35.390Z,3.60
2022-12-03T01:06:13.774Z,3.70
2022-12-03T01:08:45.069Z,3.70
2022-12-03T01:11:42.253Z,3.70
2022-12-03T01:14:14.277Z,3.80
2022-12-03T01:16:47.271Z,3.80
2022-12-03T01:19:21.604Z,3.70
2022-12-03T01:21:52.934Z,3.70
2022-12-03T01:24:36.231Z,3.80
2022-12-03T01:27:13.695Z,3.70
2022-12-03T01:29:45.752Z,3.60
2022-12-03T01:32:20.041Z,3.60
2022-12-03T01:34:52.045Z,3.70
2022-12-03T01:37:27.854Z,3.90
2022-12-03T01:40:05.038Z,3.90
2022-12-03T01:42:49.463Z,3.90
2022-12-03T01:45:27.284Z,3.70
2022-12-03T01:52:37.359Z,3.90
2022-12-03T01:55:17.670Z,3.90
2022-12-03T01:57:55.276Z,4.00
2022-12-03T02:00:34.199Z,3.70
2022-12-03T02:03:20.877Z,3.80
2022-12-03T02:05:57.618Z,3.80
2022-12-03T02:08:42.934Z,3.70
2022-12-03T02:11:29.214Z,3.80
2022-12-03T02:14:12.833Z,3.80
2022-12-03T02:16:49.793Z,3.70
2022-12-03T02:19:30.692Z,3.70
2022-12-03T02:22:16.084Z,3.70
2022-12-03T02:25:00.999Z,3.80
2022-12-03T02:27:37.295Z,3.80
2022-12-03T02:32:59.334Z,3.80
2022-12-03T02:35:40.767Z,3.80
2022-12-03T02:38:26.155Z,3.80
2022-12-03T02:41:09.960Z,3.80
2022-12-03T02:43:53.796Z,3.70
2022-12-03T02:46:29.116Z,3.50
2022-12-03T02:49:03.526Z,3.80
2022-12-03T02:51:44.257Z,3.70
2022-12-03T02:54:22.840Z,3.70
2022-12-03T02:57:02.412Z,3.50
2022-12-03T02:59:52.045Z,3.70
2022-12-03T03:02:32.119Z,3.60
2022-12-03T03:05:08.253Z,3.90
2022-12-03T03:07:40.373Z,3.80
2022-12-03T03:10:18.096Z,3.70
2022-12-03T03:12:57.200Z,3.50
2022-12-03T03:15:37.863Z,3.80
2022-12-03T03:18:20.067Z,3.60
2022-12-03T03:20:49.133Z,3.80
2022-12-03T03:23:22.399Z,3.80
2022-12-03T03:26:35.016Z,3.60
2022-12-03T03:29:24.900Z,3.60
2022-12-03T03:31:56.810Z,3.70
2022-12-03T03:34:28.391Z,3.60
2022-12-03T03:36:57.695Z,3.70
2022-12-03T03:39:34.871Z,3.70
2022-12-03T03:42:05.801Z,3.60
2022-12-03T03:44:43.285Z,3.60
2022-12-03T03:47:18.960Z,3.60
2022-12-03T03:49:56.445Z,3.60
2022-12-03T03:52:27.358Z,3.80
2022-12-03T03:55:18.024Z,3.60
2022-12-03T03:57:53.370Z,3.60
2022-12-03T04:00:28.208Z,3.80
2022-12-03T04:03:16.084Z,3.60
2022-12-03T04:05:47.028Z,3.80
2022-12-03T04:08:33.546Z,3.70
2022-12-03T04:11:25.816Z,3.70
2022-12-03T04:13:55.706Z,3.70
2022-12-03T04:16:53.242Z,4.00
2022-12-03T04:19:32.209Z,3.70
2022-12-03T04:22:21.324Z,3.70
2022-12-03T04:25:20.188Z,3.70
2022-12-03T04:31:34.463Z,3.50
2022-12-03T04:34:31.075Z,3.80
2022-12-03T04:42:33.436Z,3.70
2022-12-03T04:45:26.489Z,3.50
2022-12-03T05:09:49.967Z,3.50
2022-12-03T05:12:50.103Z,3.60
2022-12-03T05:16:31.221Z,3.60
2022-12-03T05:22:53.473Z,3.40
2022-12-03T05:25:30.310Z,3.40
2022-12-03T05:28:23.468Z,3.50
2022-12-03T05:31:09.555Z,3.50
2022-12-03T05:33:53.221Z,3.50
2022-12-03T05:36:39.181Z,3.50
2022-12-03T05:39:27.379Z,3.50
2022-12-03T05:45:57.270Z,3.60
2022-12-03T05:55:15.861Z,3.30
2022-12-03T05:58:44.142Z,3.40
2022-12-03T06:01:17.048Z,3.40
2022-12-03T06:06:45.230Z,3.40
2022-12-03T06:09:29.203Z,3.60
2022-12-03T06:12:07.257Z,3.40
2022-12-03T06:14:53.284Z,3.40
2022-12-03T06:17:55.120Z,3.40
2022-12-03T06:24:26.986Z,3.50
2022-12-03T06:27:44.330Z,3.50
2022-12-03T06:30:39.961Z,3.60
2022-12-03T06:33:40.140Z,3.70
2022-12-03T06:39:40.897Z,3.40
2022-12-03T06:42:41.846Z,3.40
2022-12-03T06:46:04.475Z,3.60
2022-12-03T06:49:31.819Z,3.60
2022-12-03T06:52:22.760Z,3.50
2022-12-03T06:55:28.171Z,3.50
2022-12-03T06:58:05.589Z,3.50
2022-12-03T07:04:30.047Z,3.50
2022-12-03T07:07:31.328Z,3.50
2022-12-03T07:10:29.894Z,3.60
2022-12-03T07:16:14.375Z,3.80
2022-12-03T07:19:04.075Z,3.60
2022-12-03T07:21:36.157Z,3.60
2022-12-03T07:24:12.521Z,3.60
2022-12-03T07:26:41.250Z,3.60
2022-12-03T07:29:13.373Z,3.80
2022-12-03T07:31:42.535Z,3.90
2022-12-03T07:34:14.189Z,3.70
2022-12-03T07:36:55.910Z,4.00
2022-12-03T07:39:56.897Z,3.70
2022-12-03T07:42:27.533Z,4.00
2022-12-03T07:45:16.895Z,3.90
2022-12-03T07:48:34.237Z,3.90
2022-12-03T07:51:18.186Z,3.80
2022-12-03T07:53:49.587Z,3.90
2022-12-03T07:56:24.490Z,4.00
2022-12-03T07:58:53.405Z,3.90
2022-12-03T08:01:29.577Z,4.10
2022-12-03T08:03:59.456Z,3.80
2022-12-03T08:06:28.350Z,4.00
2022-12-03T08:08:57.136Z,4.10
2022-12-03T08:11:32.200Z,4.00
2022-12-03T08:14:02.836Z,4.00
2022-12-03T08:16:39.126Z,4.20
2022-12-03T08:19:17.660Z,4.10
2022-12-03T08:22:06.356Z,4.10
2022-12-03T08:24:54.131Z,4.00
2022-12-03T08:27:28.151Z,4.10
2022-12-03T08:30:24.204Z,4.10
2022-12-03T08:33:04.160Z,4.40
2022-12-03T08:35:35.009Z,4.40
2022-12-03T08:49:14.052Z,4.40
2022-12-03T08:51:53.658Z,4.70
2022-12-03T08:54:29.977Z,4.60
2022-12-03T08:57:03.786Z,4.60
2022-12-03T08:59:45.613Z,4.70
2022-12-03T09:02:40.064Z,4.70
2022-12-03T09:05:20.935Z,4.70
2022-12-03T09:07:53.837Z,4.90
2022-12-03T09:10:23.933Z,4.70
2022-12-03T09:12:52.830Z,4.70
2022-12-03T09:15:28.391Z,4.80
2022-12-03T09:18:05.002Z,4.80
2022-12-03T09:20:40.154Z,4.80
2022-12-03T09:23:23.414Z,4.80
2022-12-03T09:26:28.818Z,4.80
2022-12-03T09:31:59.491Z,5.00
2022-12-03T09:35:09.565Z,4.90
2022-12-03T09:38:09.100Z,4.90
2022-12-03T09:41:24.279Z,5.00
2022-12-03T09:44:06.489Z,5.00
2022-12-03T09:46:53.202Z,5.00
2022-12-03T09:49:23.933Z,5.00
2022-12-03T09:52:41.562Z,5.30
2022-12-03T09:55:50.087Z,5.00
2022-12-03T09:58:48.981Z,5.20
2022-12-03T10:01:57.024Z,5.00
2022-12-03T10:09:37.703Z,5.00
2022-12-03T10:14:14.987Z,5.10
2022-12-03T10:17:15.011Z,5.00
2022-12-03T10:22:52.009Z,5.00
2022-12-03T10:26:19.093Z,5.00
2022-12-03T10:28:49.280Z,4.90
2022-12-03T10:31:49.588Z,5.20
2022-12-03T10:38:05.368Z,5.20
2022-12-03T10:58:33.103Z,5.20
2022-12-03T11:01:34.499Z,5.40
2022-12-03T11:04:27.338Z,5.20
2022-12-03T11:07:33.154Z,5.30
2022-12-03T11:10:59.601Z,5.30
2022-12-03T11:13:35.140Z,5.10
2022-12-03T11:50:57.321Z,5.50
2022-12-03T12:01:00.823Z,5.90
2022-12-03T12:04:23.500Z,6.10
2022-12-03T12:11:01.839Z,6.10
2022-12-03T12:18:10.637Z,6.10
2022-12-03T12:20:51.618Z,6.10
2022-12-03T12:23:30.828Z,6.10
2022-12-03T12:26:20.039Z,6.00
2022-12-03T12:28:55.063Z,6.00
2022-12-03T12:31:34.433Z,6.20
2022-12-03T12:34:44.974Z,6.00
2022-12-03T12:37:53.555Z,6.00
2022-12-03T13:18:04.856Z,5.80
2022-12-03T13:24:09.227Z,5.70
2022-12-03T13:26:47.307Z,5.90
2022-12-03T13:33:26.116Z,6.00
2022-12-03T13:36:19.601Z,5.90
2022-12-03T13:38:54.996Z,6.00
2022-12-03T13:41:46.610Z,6.00
2022-12-03T13:44:23.322Z,6.10
2022-12-03T13:47:25.697Z,6.10
2022-12-03T13:50:03.002Z,6.10
2022-12-03T13:52:45.397Z,6.00
2022-12-03T13:55:32.007Z,5.90
2022-12-03T13:58:01.986Z,6.00
2022-12-03T14:00:38.427Z,6.10
2022-12-03T14:03:12.840Z,6.00
2022-12-03T14:05:53.376Z,6.00
2022-12-03T14:08:37.126Z,6.00
2022-12-03T14:11:42.126Z,6.10
2022-12-03T14:14:16.500Z,6.10
2022-12-03T14:17:13.435Z,6.10
2022-12-03T14:19:45.952Z,6.10
2022-12-03T14:22:19.419Z,6.10
2022-12-03T14:24:57.473Z,6.00
2022-12-03T14:27:28.991Z,6.00
2022-12-03T14:30:03.058Z,6.00
2022-12-03T14:32:32.436Z,6.00
2022-12-03T14:35:14.731Z,5.90
2022-12-03T14:37:51.555Z,5.90
2022-12-03T14:47:12.498Z,5.90
2022-12-03T14:49:48.496Z,5.80
2022-12-03T14:52:26.285Z,5.50
2022-12-03T14:55:01.145Z,5.70
2022-12-03T14:58:38.506Z,5.70
2022-12-03T15:01:23.178Z,5.50
2022-12-03T15:04:01.459Z,5.60
2022-12-03T15:06:42.368Z,5.50
2022-12-03T15:09:37.255Z,5.50
2022-12-03T15:16:35.964Z,5.60
2022-12-03T15:19:24.640Z,5.70
2022-12-03T15:22:12.478Z,5.30
2022-12-03T15:25:29.117Z,5.40
2022-12-03T15:28:28.277Z,5.40
2022-12-03T15:52:49.652Z,5.20
2022-12-03T16:18:57.798Z,5.10
